createdAt,value
2024-02-28T00:01:10.961Z,99329.27
2024-02-28T00:05:03.549Z,99332.46
2024-02-28T00:09:02.565Z,99334.52
2024-02-28T00:13:00.620Z,99336.42
2024-02-28T00:16:59.608Z,99341.63
2024-02-28T00:21:01.512Z,99342.20
2024-02-28T00:24:59.569Z,99341.88
2024-02-28T00:28:57.534Z,99336.94
2024-02-28T00:32:55.656Z,99338.35
2024-02-28T00:36:56.269Z,99338.45
2024-02-28T00:40:54.503Z,99339.84
2024-02-28T00:44:52.489Z,99341.94
2024-02-28T00:48:50.546Z,99342.77
2024-02-28T00:52:41.644Z,99342.79
2024-02-28T00:56:39.509Z,99342.16
2024-02-28T01:00:37.528Z,99342.48
2024-02-28T01:04:35.502Z,99343.64
2024-02-28T01:08:33.433Z,99342.81
2024-02-28T01:12:31.540Z,99340.16
2024-02-28T01:16:29.467Z,99340.55
2024-02-28T01:20:27.489Z,99338.74
2024-02-28T01:24:25.527Z,99337.17
2024-02-28T01:28:23.498Z,99341.45
2024-02-28T01:32:21.422Z,99342.02
2024-02-28T01:36:22.563Z,99343.67
2024-02-28T01:40:20.424Z,99346.48
2024-02-28T01:44:18.492Z,99348.09
2024-02-28T01:48:16.845Z,99342.51
2024-02-28T01:52:14.442Z,99340.00
2024-02-28T01:56:12.445Z,99339.35
2024-02-28T02:00:10.419Z,99339.37
2024-02-28T02:04:08.417Z,99338.23
2024-02-28T02:08:06.491Z,99339.10
2024-02-28T02:12:04.379Z,99336.23
2024-02-28T02:16:02.474Z,99339.34
2024-02-28T02:20:00.449Z,99336.85
2024-02-28T02:23:58.385Z,99335.48
2024-02-28T02:27:56.427Z,99341.91
2024-02-28T02:31:54.406Z,99338.06
2024-02-28T02:35:52.398Z,99336.86
2024-02-28T02:39:50.494Z,99337.08
2024-02-28T02:43:48.399Z,99335.76
2024-02-28T02:47:46.430Z,99339.28
2024-02-28T02:51:44.445Z,99337.89
2024-02-28T02:55:42.366Z,99342.55
2024-02-28T02:59:40.350Z,99344.36
2024-02-28T03:03:38.433Z,99342.63
2024-02-28T03:07:36.358Z,99339.65
2024-02-28T03:11:34.331Z,99346.37
2024-02-28T03:15:32.355Z,99343.64
2024-02-28T03:19:30.380Z,99347.74
2024-02-28T03:23:28.332Z,99351.12
2024-02-28T03:27:26.335Z,99357.02
2024-02-28T03:31:24.301Z,99363.16
2024-02-28T03:35:22.320Z,99357.35
2024-02-28T03:39:20.387Z,99361.77
2024-02-28T03:43:18.366Z,99365.22
2024-02-28T03:47:16.307Z,99365.27
2024-02-28T03:51:14.296Z,99367.88
2024-02-28T03:55:12.268Z,99376.23
2024-02-28T03:59:11.300Z,99377.87
2024-02-28T04:03:09.285Z,99374.46
2024-02-28T04:07:07.267Z,99375.92
2024-02-28T04:11:05.299Z,99375.10
2024-02-28T04:15:03.256Z,99380.58
2024-02-28T04:19:01.442Z,99382.45
2024-02-28T04:22:59.263Z,99382.50
2024-02-28T04:26:57.225Z,99382.39
2024-02-28T04:30:55.353Z,99380.92
2024-02-28T04:34:53.228Z,99373.92
2024-02-28T04:38:51.227Z,99366.00
2024-02-28T04:42:49.374Z,99370.21
2024-02-28T04:46:47.326Z,99369.91
2024-02-28T04:50:45.228Z,99371.52
2024-02-28T04:54:43.235Z,99372.05
2024-02-28T04:58:41.206Z,99373.02
2024-02-28T05:02:39.192Z,99378.98
2024-02-28T05:06:40.265Z,99383.79
2024-02-28T05:10:38.218Z,99388.24
2024-02-28T05:14:36.187Z,99391.13
2024-02-28T05:18:34.301Z,99388.16
2024-02-28T05:22:32.155Z,99388.91
2024-02-28T05:26:30.277Z,99392.58
2024-02-28T05:30:28.236Z,99394.30
2024-02-28T05:34:26.181Z,99396.30
2024-02-28T05:38:24.161Z,99400.43
2024-02-28T05:42:25.268Z,99404.13
2024-02-28T05:46:23.195Z,99410.08
2024-02-28T05:50:22.301Z,99407.02
2024-02-28T05:54:20.183Z,99417.73
2024-02-28T05:58:18.146Z,99418.02
2024-02-28T06:02:16.180Z,99422.83
2024-02-28T06:06:14.177Z,99426.63
2024-02-28T06:10:12.168Z,99426.84
2024-02-28T06:14:10.144Z,99425.95
2024-02-28T06:18:08.195Z,99427.36
2024-02-28T06:22:06.260Z,99435.08
2024-02-28T06:26:04.088Z,99437.48
2024-02-28T06:30:02.116Z,99438.92
2024-02-28T06:34:00.190Z,99444.57
2024-02-28T06:37:59.129Z,99444.30
2024-02-28T06:41:58.124Z,99440.29
2024-02-28T06:45:56.235Z,99444.11
2024-02-28T06:49:54.165Z,99447.34
2024-02-28T06:53:52.176Z,99457.96
2024-02-28T06:57:50.112Z,99465.86
2024-02-28T07:01:27.847Z,99471.37
2024-02-28T07:04:52.036Z,99468.31
2024-02-28T07:08:16.127Z,99471.09
2024-02-28T07:11:40.672Z,99472.31
2024-02-28T07:15:05.075Z,99466.81
2024-02-28T07:18:30.179Z,99466.77
2024-02-28T07:21:54.447Z,99472.23
2024-02-28T07:25:21.137Z,99474.48
2024-02-28T07:28:50.578Z,99471.05
2024-02-28T07:32:14.554Z,99475.27
2024-02-28T07:35:52.165Z,99478.35
2024-02-28T07:39:16.151Z,99481.44
2024-02-28T07:42:40.196Z,99479.84
2024-02-28T07:46:04.301Z,99475.89
2024-02-28T07:49:29.143Z,99473.57
2024-02-28T07:52:56.888Z,99467.65
2024-02-28T07:56:22.382Z,99466.01
2024-02-28T07:59:46.822Z,99466.19
2024-02-28T08:03:10.851Z,99468.79
2024-02-28T08:06:35.282Z,99469.02
2024-02-28T08:09:59.475Z,99464.30
2024-02-28T08:13:23.465Z,99465.64
2024-02-28T08:16:47.448Z,99475.30
2024-02-28T08:20:11.747Z,99479.63
2024-02-28T08:23:35.893Z,99485.46
2024-02-28T08:26:59.884Z,99485.13
2024-02-28T08:30:23.909Z,99483.83
2024-02-28T08:33:48.087Z,99483.54
2024-02-28T08:37:12.203Z,99472.47
2024-02-28T08:40:36.388Z,99472.36
2024-02-28T08:44:00.388Z,99471.14
2024-02-28T08:47:28.206Z,99472.47
2024-02-28T08:50:52.539Z,99473.33
2024-02-28T08:54:16.766Z,99468.39
2024-02-28T08:57:40.928Z,99469.16
2024-02-28T09:01:05.410Z,99470.55
2024-02-28T09:04:30.082Z,99470.38
2024-02-28T09:07:56.225Z,99461.85
2024-02-28T09:11:20.414Z,99456.09
2024-02-28T09:14:45.656Z,99455.45
2024-02-28T09:18:10.069Z,99456.38
2024-02-28T09:21:34.274Z,99456.66
2024-02-28T09:24:58.339Z,99456.96
2024-02-28T09:28:22.340Z,99455.98
2024-02-28T09:31:46.454Z,99457.50
2024-02-28T09:35:11.565Z,99456.64
2024-02-28T09:38:36.193Z,99458.61
2024-02-28T09:42:00.278Z,99458.36
2024-02-28T09:45:25.875Z,99464.58
2024-02-28T09:48:52.023Z,99463.32
2024-02-28T09:52:16.823Z,99467.84
2024-02-28T09:55:41.072Z,99463.41
2024-02-28T09:59:05.146Z,99467.05
2024-02-28T10:02:33.389Z,99459.91
2024-02-28T10:05:57.428Z,99464.58
2024-02-28T10:09:21.492Z,99467.02
2024-02-28T10:12:45.675Z,99468.97
2024-02-28T10:16:09.778Z,99473.72
2024-02-28T10:19:33.876Z,99476.33
2024-02-28T10:22:57.931Z,99480.59
2024-02-28T10:26:22.144Z,99477.33
2024-02-28T10:29:47.907Z,99481.84
2024-02-28T10:33:16.699Z,99480.61
2024-02-28T10:36:41.463Z,99476.27
2024-02-28T10:40:07.281Z,99473.55
2024-02-28T10:43:32.038Z,99473.83
2024-02-28T10:46:56.554Z,99470.85
2024-02-28T10:50:20.655Z,99468.83
2024-02-28T10:53:49.100Z,99466.09
2024-02-28T10:57:15.531Z,99458.96
2024-02-28T11:00:42.796Z,99457.06
2024-02-28T11:04:08.295Z,99459.00
2024-02-28T11:07:33.557Z,99457.41
2024-02-28T11:10:58.744Z,99458.64
2024-02-28T11:14:26.028Z,99453.76
2024-02-28T11:17:50.454Z,99454.35
2024-02-28T11:21:18.235Z,99457.76
2024-02-28T11:24:46.737Z,99444.90
2024-02-28T11:28:11.599Z,99449.41
2024-02-28T11:31:35.629Z,99454.52
2024-02-28T11:34:59.591Z,99453.42
2024-02-28T11:38:23.969Z,99453.28
2024-02-28T11:41:48.773Z,99460.71
2024-02-28T11:45:13.375Z,99456.80
2024-02-28T11:48:37.473Z,99457.05
2024-02-28T11:52:01.584Z,99453.85
2024-02-28T11:55:27.741Z,99449.96
2024-02-28T11:58:56.693Z,99444.89
2024-02-28T12:02:20.692Z,99447.16
2024-02-28T12:05:45.658Z,99448.42
2024-02-28T12:09:11.405Z,99447.55
2024-02-28T12:12:36.117Z,99444.58
2024-02-28T12:16:00.213Z,99443.42
2024-02-28T12:19:26.278Z,99447.27
2024-02-28T12:22:50.705Z,99448.15
2024-02-28T12:26:14.715Z,99450.02
2024-02-28T12:29:38.696Z,99454.73
2024-02-28T12:33:02.771Z,99451.77
2024-02-28T12:36:28.125Z,99456.09
2024-02-28T12:39:52.761Z,99460.32
2024-02-28T12:43:16.773Z,99464.23
2024-02-28T12:46:40.788Z,99456.70
2024-02-28T12:50:05.428Z,99452.56
2024-02-28T12:53:29.480Z,99451.77
2024-02-28T12:56:53.610Z,99449.83
2024-02-28T13:00:18.598Z,99455.44
2024-02-28T13:03:42.569Z,99454.98
2024-02-28T13:07:07.048Z,99455.89
2024-02-28T13:10:31.742Z,99453.27
2024-02-28T13:13:56.130Z,99455.02
2024-02-28T13:17:20.838Z,99456.96
2024-02-28T13:20:44.879Z,99459.17
2024-02-28T13:24:09.059Z,99457.73
2024-02-28T13:27:33.110Z,99457.24
2024-02-28T13:31:03.573Z,99461.80
2024-02-28T13:34:30.078Z,99461.55
2024-02-28T13:37:55.914Z,99457.66
2024-02-28T13:41:19.970Z,99462.20
2024-02-28T13:44:44.216Z,99458.52
2024-02-28T13:48:18.445Z,99459.83
2024-02-28T13:51:43.067Z,99457.71
2024-02-28T13:55:09.428Z,99466.77
2024-02-28T13:58:39.378Z,99468.60
2024-02-28T14:02:10.321Z,99470.19
2024-02-28T14:05:35.108Z,99475.84
2024-02-28T14:08:59.355Z,99474.07
2024-02-28T14:12:23.525Z,99481.54
2024-02-28T14:15:48.097Z,99478.73
2024-02-28T14:19:12.071Z,99479.27
2024-02-28T14:22:36.051Z,99482.49
2024-02-28T14:26:00.158Z,99483.01
2024-02-28T14:29:24.168Z,99482.48
2024-02-28T14:33:09.318Z,99485.59
2024-02-28T14:37:07.660Z,99488.30
2024-02-28T14:41:05.614Z,99491.27
2024-02-28T14:45:03.594Z,99493.18
2024-02-28T14:49:01.664Z,99494.52
2024-02-28T14:52:59.613Z,99497.91
2024-02-28T14:56:57.627Z,99494.36
2024-02-28T15:00:56.768Z,99499.55
2024-02-28T15:04:55.641Z,99505.95
2024-02-28T15:08:53.596Z,99499.66
2024-02-28T15:12:52.667Z,99506.30
2024-02-28T15:16:50.615Z,99511.08
2024-02-28T15:20:48.578Z,99513.02
2024-02-28T15:24:47.615Z,99513.80
2024-02-28T15:28:45.623Z,99519.94
2024-02-28T15:32:46.550Z,99524.65
2024-02-28T15:36:44.586Z,99524.61
2024-02-28T15:40:42.682Z,99526.61
2024-02-28T15:44:40.590Z,99529.05
2024-02-28T15:48:38.549Z,99534.25
2024-02-28T15:52:36.570Z,99535.75
2024-02-28T15:56:34.523Z,99536.27
2024-02-28T16:00:32.593Z,99536.85
2024-02-28T16:04:30.517Z,99540.30
2024-02-28T16:08:28.555Z,99544.61
2024-02-28T16:12:26.541Z,99546.50
2024-02-28T16:16:24.623Z,99548.14
2024-02-28T16:20:23.522Z,99549.02
2024-02-28T16:24:21.771Z,99549.63
2024-02-28T16:28:19.527Z,99550.06
2024-02-28T16:32:17.488Z,99552.41
2024-02-28T16:36:15.526Z,99558.56
2024-02-28T16:40:14.564Z,99561.14
2024-02-28T16:44:12.452Z,99560.53
2024-02-28T16:48:11.544Z,99566.48
2024-02-28T16:52:09.474Z,99571.48
2024-02-28T16:56:07.499Z,99573.98
2024-02-28T17:00:05.520Z,99575.59
2024-02-28T17:04:03.500Z,99573.84
2024-02-28T17:08:01.440Z,99578.00
2024-02-28T17:11:59.491Z,99576.72
2024-02-28T17:16:01.564Z,99573.39
2024-02-28T17:20:00.595Z,99578.13
2024-02-28T17:23:58.549Z,99574.86
2024-02-28T17:27:56.445Z,99570.13
2024-02-28T17:31:54.447Z,99573.70
2024-02-28T17:35:52.572Z,99573.11
2024-02-28T17:39:50.535Z,99570.02
2024-02-28T17:43:49.427Z,99576.20
2024-02-28T17:47:47.410Z,99574.42
2024-02-28T17:51:45.661Z,99576.91
2024-02-28T17:55:43.426Z,99577.04
2024-02-28T17:59:41.532Z,99568.54
2024-02-28T18:03:39.432Z,99564.08
2024-02-28T18:07:37.379Z,99567.01
2024-02-28T18:11:44.407Z,99568.54
2024-02-28T18:15:42.437Z,99571.20
2024-02-28T18:19:40.415Z,99575.48
2024-02-28T18:23:38.412Z,99576.23
2024-02-28T18:27:36.392Z,99576.23
2024-02-28T18:31:34.409Z,99579.34
2024-02-28T18:35:33.388Z,99582.16
2024-02-28T18:39:31.511Z,99582.46
2024-02-28T18:43:29.460Z,99587.23
2024-02-28T18:47:27.704Z,99590.04
2024-02-28T18:51:25.475Z,99593.35
2024-02-28T18:55:23.413Z,99599.27
2024-02-28T18:59:21.347Z,99608.11
2024-02-28T19:03:19.406Z,99611.95
2024-02-28T19:07:17.443Z,99613.52
2024-02-28T19:11:15.364Z,99624.52
2024-02-28T19:15:14.562Z,99623.09
2024-02-28T19:19:12.461Z,99621.92
2024-02-28T19:23:10.698Z,99628.68
2024-02-28T19:27:08.448Z,99629.62
2024-02-28T19:31:06.448Z,99636.88
2024-02-28T19:35:04.410Z,99638.45
2024-02-28T19:39:03.288Z,99638.70
2024-02-28T19:43:01.337Z,99639.77
2024-02-28T19:46:59.371Z,99639.73
2024-02-28T19:50:57.562Z,99644.31
2024-02-28T19:54:55.358Z,99646.59
2024-02-28T19:58:55.445Z,99649.54
2024-02-28T20:02:53.282Z,99651.74
2024-02-28T20:06:51.331Z,99654.80
2024-02-28T20:10:49.330Z,99650.47
2024-02-28T20:14:49.276Z,99649.71
2024-02-28T20:18:47.330Z,99653.33
2024-02-28T20:22:45.367Z,99658.27
2024-02-28T20:26:43.286Z,99660.31
2024-02-28T20:30:41.415Z,99664.86
2024-02-28T20:34:39.530Z,99666.85
2024-02-28T20:38:37.266Z,99665.14
2024-02-28T20:42:35.261Z,99668.46
2024-02-28T20:46:33.241Z,99664.59
2024-02-28T20:50:33.328Z,99667.29
2024-02-28T20:54:31.881Z,99674.21
2024-02-28T20:58:29.226Z,99681.14
2024-02-28T21:02:27.316Z,99686.23
2024-02-28T21:06:27.284Z,99687.16
2024-02-28T21:10:25.306Z,99688.21
2024-02-28T21:14:23.251Z,99696.81
2024-02-28T21:18:22.033Z,99699.63
2024-02-28T21:22:20.225Z,99707.08
2024-02-28T21:26:18.244Z,99710.64
2024-02-28T21:30:16.242Z,99720.00
2024-02-28T21:34:14.278Z,99724.72
2024-02-28T21:38:12.187Z,99734.94
2024-02-28T21:42:11.189Z,99732.04
2024-02-28T21:46:09.390Z,99728.27
2024-02-28T21:50:07.288Z,99734.82
2024-02-28T21:54:05.333Z,99739.00
2024-02-28T21:58:03.298Z,99733.10
2024-02-28T22:02:01.220Z,99736.73
2024-02-28T22:05:59.189Z,99738.92
2024-02-28T22:09:57.215Z,99745.70
2024-02-28T22:13:55.245Z,99748.71
2024-02-28T22:17:53.185Z,99751.39
2024-02-28T22:21:51.256Z,99750.46
2024-02-28T22:25:49.123Z,99748.17
2024-02-28T22:29:47.110Z,99742.32
2024-02-28T22:33:45.540Z,99743.48
2024-02-28T22:37:43.305Z,99747.86
2024-02-28T22:41:42.053Z,99747.23
2024-02-28T22:45:40.170Z,99751.51
2024-02-28T22:49:38.101Z,99755.15
2024-02-28T22:53:36.412Z,99758.25
2024-02-28T22:57:34.122Z,99760.14
2024-02-28T23:01:32.130Z,99766.06
2024-02-28T23:05:31.115Z,99771.17
2024-02-28T23:09:36.330Z,99764.45
2024-02-28T23:13:34.072Z,99765.27
2024-02-28T23:17:41.123Z,99771.11
2024-02-28T23:21:40.251Z,99770.59
2024-02-28T23:25:38.027Z,99772.92
2024-02-28T23:29:37.004Z,99777.30
2024-02-28T23:33:35.069Z,99776.74
2024-02-28T23:37:32.991Z,99781.01
2024-02-28T23:41:31.048Z,99786.23
2024-02-28T23:45:29.171Z,99794.25
2024-02-28T23:49:27.003Z,99791.16
2024-02-28T23:53:24.964Z,99794.25
2024-02-28T23:57:23.011Z,99796.17
